createdAt,value
2018-09-30T00:00:28.265Z,81.39
2018-09-30T00:02:56.785Z,81.47
2018-09-30T00:05:25.146Z,81.60
2018-09-30T00:07:53.447Z,81.58
2018-09-30T00:10:21.787Z,80.96
2018-09-30T00:12:51.299Z,81.05
2018-09-30T00:15:19.556Z,81.63
2018-09-30T00:17:47.895Z,81.45
2018-09-30T00:20:17.421Z,81.35
2018-09-30T00:22:45.827Z,81.48
2018-09-30T00:26:18.425Z,81.32
2018-09-30T00:28:47.029Z,81.29
2018-09-30T00:31:15.355Z,81.77
2018-09-30T00:33:48.884Z,81.56
2018-09-30T00:36:18.080Z,81.55
2018-09-30T00:38:46.403Z,81.92
2018-09-30T00:41:14.739Z,81.97
2018-09-30T00:43:43.254Z,81.55
2018-09-30T00:46:11.595Z,81.82
2018-09-30T00:48:39.919Z,81.90
2018-09-30T00:51:08.268Z,81.62
2018-09-30T00:53:36.607Z,81.74
2018-09-30T00:56:04.912Z,81.83
2018-09-30T00:58:33.317Z,81.53
2018-09-30T01:01:01.695Z,81.85
2018-09-30T01:03:29.997Z,82.06
2018-09-30T01:05:58.342Z,81.96
2018-09-30T01:08:26.675Z,82.12
2018-09-30T01:10:54.998Z,82.25
2018-09-30T01:13:23.302Z,82.28
2018-09-30T01:15:51.660Z,81.75
2018-09-30T01:18:19.986Z,81.89
2018-09-30T01:20:48.291Z,82.27
2018-09-30T01:23:16.689Z,81.97
2018-09-30T01:25:45.024Z,82.54
2018-09-30T01:28:13.321Z,82.29
2018-09-30T01:30:41.827Z,82.04
2018-09-30T01:33:10.136Z,82.23
2018-09-30T01:35:39.027Z,81.56
2018-09-30T01:38:07.334Z,81.62
2018-09-30T01:40:35.625Z,81.95
2018-09-30T01:43:04.567Z,82.49
2018-09-30T01:45:33.101Z,82.17
2018-09-30T01:48:01.417Z,82.18
2018-09-30T01:50:29.735Z,82.40
2018-09-30T01:52:58.546Z,82.30
2018-09-30T01:55:26.927Z,82.63
2018-09-30T01:57:55.247Z,82.91
2018-09-30T02:00:23.561Z,82.64
2018-09-30T02:02:52.780Z,82.67
2018-09-30T02:05:21.174Z,82.50
2018-09-30T02:07:49.605Z,82.58
2018-09-30T02:10:18.244Z,82.62
2018-09-30T02:12:46.787Z,82.54
2018-09-30T02:15:15.111Z,82.21
2018-09-30T02:17:43.432Z,82.04
2018-09-30T02:20:11.767Z,82.32
2018-09-30T02:22:40.048Z,81.98
2018-09-30T02:25:08.358Z,82.51
2018-09-30T02:27:36.663Z,82.23
2018-09-30T02:30:05.270Z,82.44
2018-09-30T02:32:34.699Z,82.32
2018-09-30T02:35:03.019Z,82.40
2018-09-30T02:37:31.338Z,82.63
2018-09-30T02:39:59.684Z,82.60
2018-09-30T02:42:28.013Z,82.82
2018-09-30T02:44:56.329Z,82.09
2018-09-30T02:47:24.619Z,82.44
2018-09-30T02:49:52.953Z,82.34
2018-09-30T02:52:21.269Z,82.38
2018-09-30T02:54:49.621Z,82.42
2018-09-30T02:57:17.933Z,82.12
2018-09-30T02:59:46.227Z,82.78
2018-09-30T03:02:14.537Z,82.62
2018-09-30T03:04:42.838Z,82.82
2018-09-30T03:07:16.483Z,82.19
2018-09-30T03:09:44.825Z,82.56
2018-09-30T03:12:13.114Z,82.60
2018-09-30T03:14:41.493Z,82.64
2018-09-30T03:17:09.833Z,82.54
2018-09-30T03:19:38.126Z,82.61
2018-09-30T03:22:06.796Z,82.60
2018-09-30T03:24:35.105Z,82.71
2018-09-30T03:27:03.427Z,82.40
2018-09-30T03:29:31.776Z,82.67
2018-09-30T03:32:00.077Z,82.65
2018-09-30T03:34:28.411Z,82.93
2018-09-30T03:36:56.706Z,83.19
2018-09-30T03:39:25.154Z,82.83
2018-09-30T03:41:53.423Z,83.20
2018-09-30T03:44:21.793Z,82.92
2018-09-30T03:46:51.295Z,82.34
2018-09-30T03:49:19.665Z,82.85
2018-09-30T03:51:47.932Z,82.81
2018-09-30T03:54:16.326Z,82.74
2018-09-30T03:56:44.698Z,83.25
2018-09-30T03:59:12.965Z,82.47
2018-09-30T04:01:41.306Z,82.93
2018-09-30T04:04:09.697Z,83.00
2018-09-30T04:06:38.013Z,82.75
2018-09-30T04:09:08.215Z,82.97
2018-09-30T04:11:36.816Z,82.64
2018-09-30T04:14:05.100Z,82.83
2018-09-30T04:16:33.437Z,82.39
2018-09-30T04:19:01.808Z,82.86
2018-09-30T04:21:30.133Z,83.08
2018-09-30T04:24:07.116Z,82.75
2018-09-30T04:26:35.431Z,83.02
2018-09-30T04:29:04.165Z,83.00
2018-09-30T04:31:32.761Z,82.94
2018-09-30T04:34:01.614Z,82.95
2018-09-30T04:36:30.330Z,83.44
2018-09-30T04:38:58.592Z,83.18
2018-09-30T04:41:26.990Z,82.96
2018-09-30T04:43:55.870Z,83.08
2018-09-30T04:46:24.514Z,83.48
2018-09-30T04:48:52.856Z,83.02
2018-09-30T04:51:21.184Z,83.65
2018-09-30T04:53:49.503Z,82.91
2018-09-30T04:56:17.808Z,83.20
2018-09-30T04:58:46.139Z,83.21
2018-09-30T05:01:14.503Z,83.17
2018-09-30T05:03:43.267Z,83.17
2018-09-30T05:06:12.654Z,83.26
2018-09-30T05:08:41.025Z,83.10
2018-09-30T05:11:09.343Z,83.33
2018-09-30T05:13:37.663Z,83.59
2018-09-30T05:16:05.976Z,82.99
2018-09-30T05:18:34.385Z,83.59
2018-09-30T05:21:02.714Z,82.99
2018-09-30T05:23:31.005Z,83.03
2018-09-30T05:25:59.321Z,82.94
2018-09-30T05:28:27.773Z,83.30
2018-09-30T05:30:56.119Z,83.23
2018-09-30T05:33:24.436Z,83.47
2018-09-30T05:35:52.740Z,83.33
2018-09-30T05:38:21.055Z,83.60
2018-09-30T05:40:49.345Z,83.48
2018-09-30T05:43:17.668Z,83.48
2018-09-30T05:45:46.004Z,83.70
2018-09-30T05:48:14.378Z,83.42
2018-09-30T05:50:42.711Z,83.08
2018-09-30T05:53:11.021Z,83.57
2018-09-30T05:55:39.459Z,83.46
2018-09-30T05:58:07.839Z,83.08
2018-09-30T06:00:36.092Z,83.25
2018-09-30T06:03:04.402Z,82.86
2018-09-30T06:05:32.690Z,83.07
2018-09-30T06:08:01.149Z,84.07
2018-09-30T06:10:29.445Z,84.16
2018-09-30T06:12:57.778Z,83.75
2018-09-30T06:15:26.087Z,83.84
2018-09-30T06:17:54.364Z,83.85
2018-09-30T06:20:22.712Z,84.04
2018-09-30T06:22:51.013Z,84.01
2018-09-30T06:25:19.386Z,84.26
2018-09-30T06:27:47.707Z,83.64
2018-09-30T06:30:16.054Z,83.66
2018-09-30T06:32:44.329Z,84.07
2018-09-30T06:35:12.642Z,83.73
2018-09-30T06:37:40.923Z,83.99
2018-09-30T06:40:09.244Z,84.31
2018-09-30T06:42:37.924Z,84.05
2018-09-30T06:45:06.366Z,84.29
2018-09-30T06:47:34.649Z,83.93
2018-09-30T06:50:02.933Z,83.52
2018-09-30T06:52:31.257Z,83.85
2018-09-30T06:54:59.835Z,83.86
2018-09-30T06:57:28.122Z,83.22
2018-09-30T06:59:56.424Z,83.42
2018-09-30T07:02:24.719Z,83.46
2018-09-30T07:04:53.060Z,83.42
2018-09-30T07:07:21.342Z,83.48
2018-09-30T07:09:49.632Z,82.17
2018-09-30T07:12:17.953Z,82.52
2018-09-30T07:14:46.232Z,82.43
2018-09-30T07:17:14.524Z,81.85
2018-09-30T07:19:42.796Z,82.62
2018-09-30T07:22:11.174Z,81.88
2018-09-30T07:24:39.475Z,81.98
2018-09-30T07:27:09.130Z,81.87
2018-09-30T07:29:37.436Z,81.27
2018-09-30T07:32:05.767Z,81.39
2018-09-30T07:34:34.135Z,80.84
2018-09-30T07:37:02.427Z,80.81
2018-09-30T07:39:30.810Z,79.92
2018-09-30T07:41:59.117Z,79.48
2018-09-30T07:44:27.500Z,79.00
2018-09-30T07:46:55.803Z,78.25
2018-09-30T07:49:24.132Z,78.73
2018-09-30T07:51:52.488Z,78.11
2018-09-30T07:54:21.047Z,77.67
2018-09-30T07:56:49.375Z,77.08
2018-09-30T07:59:17.689Z,77.33
2018-09-30T08:01:46.013Z,76.72
2018-09-30T08:04:14.339Z,76.27
2018-09-30T08:06:42.645Z,76.12
2018-09-30T08:09:11.242Z,75.83
2018-09-30T08:11:40.385Z,75.14
2018-09-30T08:14:08.701Z,74.57
2018-09-30T08:16:37.115Z,74.21
2018-09-30T08:19:05.373Z,73.95
2018-09-30T08:21:33.734Z,74.31
2018-09-30T08:24:02.068Z,73.64
2018-09-30T08:26:30.340Z,73.18
2018-09-30T08:28:58.674Z,72.78
2018-09-30T08:31:26.940Z,72.16
2018-09-30T08:33:55.221Z,72.68
2018-09-30T08:36:23.554Z,71.07
2018-09-30T08:38:51.952Z,70.80
2018-09-30T08:41:20.283Z,69.66
2018-09-30T08:43:48.612Z,70.09
2018-09-30T08:46:16.881Z,68.77
2018-09-30T08:48:46.231Z,68.65
2018-09-30T08:51:14.519Z,69.11
2018-09-30T08:53:42.884Z,67.93
2018-09-30T08:56:11.141Z,66.79
2018-09-30T08:58:39.507Z,67.12
2018-09-30T09:01:07.827Z,67.07
2018-09-30T09:03:36.129Z,66.28
2018-09-30T09:06:04.455Z,65.72
2018-09-30T09:08:32.756Z,65.64
2018-09-30T09:11:01.092Z,65.62
2018-09-30T09:13:29.422Z,65.47
2018-09-30T09:15:57.692Z,65.13
2018-09-30T09:18:26.047Z,65.54
2018-09-30T09:20:54.361Z,65.13
2018-09-30T09:23:22.751Z,65.18
2018-09-30T09:25:51.069Z,64.78
2018-09-30T09:28:19.389Z,65.47
2018-09-30T09:30:47.687Z,64.44
2018-09-30T09:33:15.995Z,64.01
2018-09-30T09:35:44.381Z,64.59
2018-09-30T09:38:12.684Z,64.41
2018-09-30T09:40:41.029Z,64.72
2018-09-30T09:43:09.396Z,64.44
2018-09-30T09:45:37.681Z,64.64
2018-09-30T09:48:06.019Z,64.14
2018-09-30T09:50:34.312Z,63.85
2018-09-30T09:53:02.630Z,63.53
2018-09-30T09:55:30.973Z,62.05
2018-09-30T09:57:59.371Z,61.36
2018-09-30T10:00:30.744Z,61.58
2018-09-30T10:02:59.168Z,62.52
2018-09-30T10:05:27.640Z,62.02
2018-09-30T10:07:55.985Z,61.54
2018-09-30T10:10:24.300Z,60.86
2018-09-30T10:12:52.582Z,60.64
2018-09-30T10:15:21.198Z,60.30
2018-09-30T10:17:49.549Z,60.69
2018-09-30T10:20:17.841Z,61.27
2018-09-30T10:22:46.273Z,60.53
2018-09-30T10:25:14.571Z,59.94
2018-09-30T10:27:42.880Z,60.34
2018-09-30T10:30:11.407Z,60.14
2018-09-30T10:32:39.693Z,59.95
2018-09-30T10:35:07.979Z,59.78
2018-09-30T10:37:36.374Z,59.61
2018-09-30T10:40:04.686Z,59.05
2018-09-30T10:42:32.976Z,58.61
2018-09-30T10:45:01.404Z,58.26
2018-09-30T10:47:29.691Z,58.04
2018-09-30T10:49:58.002Z,58.60
2018-09-30T10:52:26.325Z,58.53
2018-09-30T10:54:54.615Z,58.16
2018-09-30T10:57:22.919Z,58.05
2018-09-30T10:59:51.206Z,58.47
2018-09-30T11:02:19.540Z,57.73
2018-09-30T11:04:47.820Z,57.33
2018-09-30T11:07:16.112Z,56.86
2018-09-30T11:09:44.542Z,56.39
2018-09-30T11:12:12.773Z,56.63
2018-09-30T11:14:41.029Z,55.75
2018-09-30T11:17:10.535Z,55.76
2018-09-30T11:19:38.843Z,56.17
2018-09-30T11:22:07.177Z,55.42
2018-09-30T11:24:35.456Z,55.79
2018-09-30T11:27:03.781Z,55.03
2018-09-30T11:29:32.093Z,53.29
2018-09-30T11:32:00.422Z,53.02
2018-09-30T11:34:28.733Z,52.72
2018-09-30T11:36:57.040Z,52.55
2018-09-30T11:39:25.374Z,53.34
2018-09-30T11:41:53.699Z,52.22
2018-09-30T11:44:22.056Z,52.26
2018-09-30T11:46:50.397Z,52.26
2018-09-30T11:49:18.701Z,52.42
2018-09-30T11:51:47.049Z,52.89
2018-09-30T11:54:16.487Z,52.88
2018-09-30T11:56:44.824Z,52.25
2018-09-30T11:59:13.143Z,53.48
2018-09-30T12:01:41.640Z,53.19
2018-09-30T12:04:09.948Z,52.46
2018-09-30T12:06:38.265Z,51.20
2018-09-30T12:09:08.506Z,50.86
2018-09-30T12:11:36.856Z,51.51
2018-09-30T12:14:05.245Z,50.95
2018-09-30T12:16:33.602Z,51.17
2018-09-30T12:19:01.917Z,50.45
2018-09-30T12:21:30.319Z,50.26
2018-09-30T12:23:58.649Z,50.27
2018-09-30T12:26:26.962Z,50.32
2018-09-30T12:28:55.291Z,50.40
2018-09-30T12:31:24.256Z,50.02
2018-09-30T12:33:52.530Z,49.95
2018-09-30T12:36:21.747Z,50.21
2018-09-30T12:38:50.059Z,50.77
2018-09-30T12:41:18.376Z,50.21
2018-09-30T12:43:46.686Z,50.21
2018-09-30T12:46:14.957Z,50.30
2018-09-30T12:48:43.232Z,50.73
2018-09-30T12:51:11.529Z,49.68
2018-09-30T12:53:39.909Z,49.92
2018-09-30T12:56:08.216Z,49.40
2018-09-30T12:58:36.556Z,49.11
2018-09-30T13:01:04.885Z,48.76
2018-09-30T13:03:33.163Z,49.09
2018-09-30T13:06:01.450Z,48.97
2018-09-30T13:08:30.499Z,49.00
2018-09-30T13:10:58.799Z,48.77
2018-09-30T13:13:27.093Z,48.41
2018-09-30T13:15:55.431Z,48.28
2018-09-30T13:18:23.904Z,48.26
2018-09-30T13:20:52.300Z,48.81
2018-09-30T13:23:20.545Z,49.38
2018-09-30T13:25:48.879Z,48.52
2018-09-30T13:28:17.153Z,48.38
2018-09-30T13:30:45.446Z,48.41
2018-09-30T13:33:13.736Z,48.46
2018-09-30T13:35:42.040Z,48.73
2018-09-30T13:38:10.349Z,48.37
2018-09-30T13:40:38.791Z,47.80
2018-09-30T13:43:06.992Z,47.51
2018-09-30T13:45:35.312Z,47.27
2018-09-30T13:48:03.664Z,46.41
2018-09-30T13:50:32.597Z,46.61
2018-09-30T13:53:00.889Z,46.33
2018-09-30T13:55:29.244Z,46.22
2018-09-30T13:57:57.548Z,46.24
2018-09-30T14:00:25.904Z,45.54
2018-09-30T14:02:54.213Z,45.76
2018-09-30T14:05:22.547Z,45.77
2018-09-30T14:07:50.874Z,45.17
2018-09-30T14:10:19.179Z,45.40
2018-09-30T14:12:47.572Z,45.03
2018-09-30T14:15:16.520Z,45.38
2018-09-30T14:17:45.424Z,45.43
2018-09-30T14:20:13.722Z,45.80
2018-09-30T14:22:41.991Z,44.25
2018-09-30T14:25:10.325Z,45.39
2018-09-30T14:27:38.634Z,45.06
2018-09-30T14:30:07.018Z,44.89
2018-09-30T14:32:35.277Z,44.66
2018-09-30T14:35:03.676Z,45.77
2018-09-30T14:37:32.009Z,45.49
2018-09-30T14:40:00.549Z,45.70
2018-09-30T14:42:29.100Z,46.10
2018-09-30T14:44:57.568Z,46.03
2018-09-30T14:47:25.857Z,45.60
2018-09-30T14:49:54.177Z,45.71
2018-09-30T14:52:23.476Z,45.70
2018-09-30T14:54:51.747Z,45.06
2018-09-30T14:57:20.075Z,44.82
2018-09-30T14:59:48.414Z,45.13
2018-09-30T15:02:16.812Z,44.83
2018-09-30T15:04:45.127Z,44.66
2018-09-30T15:07:13.487Z,44.14
2018-09-30T15:09:41.805Z,44.72
2018-09-30T15:12:10.216Z,44.07
2018-09-30T15:14:38.592Z,44.80
2018-09-30T15:17:06.940Z,45.18
2018-09-30T15:19:35.260Z,44.31
2018-09-30T15:22:03.561Z,44.98
2018-09-30T15:24:31.868Z,45.42
2018-09-30T15:27:00.166Z,45.95
2018-09-30T15:29:28.467Z,46.14
2018-09-30T15:31:56.757Z,45.93
2018-09-30T15:34:25.052Z,46.62
2018-09-30T15:36:53.393Z,47.22
2018-09-30T15:39:21.712Z,47.28
2018-09-30T15:41:51.213Z,48.38
2018-09-30T15:44:19.557Z,48.22
2018-09-30T15:46:47.988Z,48.94
2018-09-30T15:49:16.284Z,49.64
2018-09-30T15:51:44.564Z,49.54
2018-09-30T15:54:12.940Z,50.08
2018-09-30T15:56:41.253Z,49.34
2018-09-30T15:59:09.533Z,49.27
2018-09-30T16:01:37.897Z,49.66
2018-09-30T16:04:06.369Z,49.95
2018-09-30T16:06:34.700Z,50.33
2018-09-30T16:09:03.098Z,50.50
2018-09-30T16:11:31.416Z,50.28
2018-09-30T16:13:59.703Z,50.44
2018-09-30T16:16:29.298Z,51.03
2018-09-30T16:18:57.577Z,50.94
2018-09-30T16:21:25.981Z,50.81
2018-09-30T16:23:54.255Z,50.76
2018-09-30T16:26:22.573Z,50.49
2018-09-30T16:28:50.977Z,51.27
2018-09-30T16:31:19.380Z,50.86
2018-09-30T16:33:47.711Z,51.09
2018-09-30T16:36:16.068Z,51.93
2018-09-30T16:38:50.581Z,51.87
2018-09-30T16:41:25.238Z,51.93
2018-09-30T16:44:00.450Z,51.02
2018-09-30T16:46:29.757Z,51.26
2018-09-30T16:48:58.061Z,50.75
2018-09-30T16:51:26.344Z,50.92
2018-09-30T16:53:54.694Z,50.97
2018-09-30T16:56:22.999Z,50.60
2018-09-30T16:58:51.631Z,50.99
2018-09-30T17:01:19.971Z,50.89
2018-09-30T17:03:48.529Z,50.71
2018-09-30T17:06:17.178Z,51.19
2018-09-30T17:08:45.480Z,51.15
2018-09-30T17:11:13.800Z,51.88
2018-09-30T17:13:42.098Z,51.95
2018-09-30T17:16:10.421Z,52.12
2018-09-30T17:19:49.922Z,52.99
2018-09-30T17:22:18.232Z,53.34
2018-09-30T17:24:46.927Z,52.85
2018-09-30T17:27:15.225Z,53.34
2018-09-30T17:29:43.514Z,53.47
2018-09-30T17:32:12.014Z,53.76
2018-09-30T17:34:40.311Z,53.62
2018-09-30T17:37:08.669Z,54.36
2018-09-30T17:39:36.993Z,55.15
2018-09-30T17:42:05.449Z,54.87
2018-09-30T17:44:33.756Z,55.11
2018-09-30T17:47:02.081Z,55.04
2018-09-30T17:49:30.409Z,55.96
2018-09-30T17:51:58.752Z,56.34
2018-09-30T17:54:27.076Z,57.30
2018-09-30T17:56:55.735Z,57.41
2018-09-30T17:59:24.043Z,57.10
2018-09-30T18:01:52.398Z,58.16
2018-09-30T18:04:20.744Z,58.15
2018-09-30T18:06:49.032Z,58.77
2018-09-30T18:09:17.349Z,58.95
2018-09-30T18:11:46.020Z,59.67
2018-09-30T18:14:14.321Z,60.50
2018-09-30T18:16:42.854Z,60.47
2018-09-30T18:19:11.212Z,61.48
2018-09-30T18:21:39.512Z,61.35
2018-09-30T18:24:07.818Z,61.71
2018-09-30T18:26:36.258Z,62.74
2018-09-30T18:29:04.598Z,63.52
2018-09-30T18:31:33.379Z,64.08
2018-09-30T18:34:01.818Z,64.20
2018-09-30T18:36:30.347Z,65.00
2018-09-30T18:38:58.657Z,65.62
2018-09-30T18:41:26.998Z,65.34
2018-09-30T18:43:55.347Z,65.77
2018-09-30T18:46:23.735Z,66.08
2018-09-30T18:48:52.041Z,66.48
2018-09-30T18:51:20.390Z,66.70
2018-09-30T18:53:48.738Z,67.75
2018-09-30T18:56:17.109Z,68.34
2018-09-30T18:58:46.649Z,68.09
2018-09-30T19:01:14.992Z,68.66
2018-09-30T19:03:43.354Z,68.62
2018-09-30T19:06:11.698Z,68.98
2018-09-30T19:08:40.081Z,68.65
2018-09-30T19:11:08.665Z,69.61
2018-09-30T19:13:37.222Z,69.23
2018-09-30T19:16:05.929Z,69.94
2018-09-30T19:18:34.192Z,70.13
2018-09-30T19:21:04.700Z,70.05
2018-09-30T19:23:32.990Z,70.18
2018-09-30T19:26:01.298Z,70.79
2018-09-30T19:28:29.676Z,71.06
2018-09-30T19:30:57.989Z,70.74
2018-09-30T19:33:26.374Z,71.20
2018-09-30T19:35:54.707Z,71.17
2018-09-30T19:38:23.093Z,71.51
2018-09-30T19:40:51.441Z,71.55
2018-09-30T19:43:19.757Z,71.80
2018-09-30T19:45:49.241Z,72.13
2018-09-30T19:48:17.529Z,72.07
2018-09-30T19:50:45.805Z,72.33
2018-09-30T19:53:14.278Z,71.87
2018-09-30T19:55:42.586Z,71.88
2018-09-30T19:58:10.907Z,71.96
2018-09-30T20:00:40.058Z,72.02
2018-09-30T20:03:08.689Z,71.71
2018-09-30T20:05:37.616Z,72.02
2018-09-30T20:08:05.997Z,72.28
2018-09-30T20:10:34.362Z,71.79
2018-09-30T20:13:02.716Z,72.33
2018-09-30T20:15:31.137Z,72.04
2018-09-30T20:17:59.427Z,72.19
2018-09-30T20:20:27.724Z,72.60
2018-09-30T20:22:56.065Z,72.58
2018-09-30T20:25:24.358Z,72.83
2018-09-30T20:27:52.720Z,73.44
2018-09-30T20:30:21.019Z,73.55
2018-09-30T20:32:49.316Z,73.89
2018-09-30T20:35:17.641Z,73.90
2018-09-30T20:37:46.038Z,73.90
2018-09-30T20:40:14.388Z,74.04
2018-09-30T20:42:42.734Z,74.44
2018-09-30T20:45:11.040Z,74.68
2018-09-30T20:47:39.359Z,74.52
2018-09-30T20:50:07.896Z,75.16
2018-09-30T20:52:36.193Z,75.23
2018-09-30T20:55:04.538Z,75.04
2018-09-30T20:57:32.868Z,74.94
2018-09-30T21:00:02.668Z,75.47
2018-09-30T21:02:32.134Z,75.90
2018-09-30T21:05:20.974Z,75.94
2018-09-30T21:07:49.983Z,76.12
2018-09-30T21:10:18.311Z,75.64
2018-09-30T21:12:46.589Z,75.50
2018-09-30T21:15:14.891Z,75.30
2018-09-30T21:17:43.206Z,75.79
2018-09-30T21:20:11.636Z,75.25
2018-09-30T21:22:39.981Z,75.19
2018-09-30T21:25:08.289Z,75.84
2018-09-30T21:27:36.700Z,75.79
2018-09-30T21:30:05.348Z,75.89
2018-09-30T21:32:33.684Z,76.38
2018-09-30T21:35:02.002Z,76.35
2018-09-30T21:37:30.319Z,75.66
2018-09-30T21:39:58.608Z,75.66
2018-09-30T21:42:26.948Z,75.49
2018-09-30T21:44:55.288Z,75.37
2018-09-30T21:47:23.688Z,76.03
2018-09-30T21:49:52.017Z,75.76
2018-09-30T21:52:20.363Z,76.39
2018-09-30T21:54:48.702Z,77.00
2018-09-30T21:57:17.019Z,76.64
2018-09-30T21:59:45.323Z,76.34
2018-09-30T22:02:13.704Z,76.00
2018-09-30T22:04:42.010Z,76.11
2018-09-30T22:07:10.325Z,76.15
2018-09-30T22:09:38.864Z,76.41
2018-09-30T22:12:07.280Z,76.69
2018-09-30T22:14:35.588Z,76.94
2018-09-30T22:17:04.013Z,76.68
2018-09-30T22:19:33.325Z,77.16
2018-09-30T22:22:01.639Z,76.58
2018-09-30T22:24:29.951Z,77.21
2018-09-30T22:26:58.272Z,76.85
2018-09-30T22:29:26.608Z,77.03
2018-09-30T22:31:54.985Z,77.12
2018-09-30T22:34:23.263Z,77.75
2018-09-30T22:36:51.651Z,78.19
2018-09-30T22:39:19.941Z,78.16
2018-09-30T22:41:48.284Z,77.80
2018-09-30T22:44:16.605Z,78.06
2018-09-30T22:46:44.929Z,77.93
2018-09-30T22:49:13.240Z,78.25
2018-09-30T22:51:41.559Z,78.60
2018-09-30T22:54:09.911Z,78.85
2018-09-30T22:56:38.228Z,78.57
2018-09-30T22:59:06.579Z,78.54
2018-09-30T23:01:34.924Z,79.43
2018-09-30T23:04:03.393Z,79.02
2018-09-30T23:06:31.709Z,79.61
2018-09-30T23:09:00.053Z,79.62
2018-09-30T23:11:28.407Z,79.26
2018-09-30T23:13:56.742Z,79.84
2018-09-30T23:16:25.064Z,79.82
2018-09-30T23:18:53.400Z,80.24
2018-09-30T23:21:21.723Z,79.72
2018-09-30T23:23:50.072Z,80.19
2018-09-30T23:26:18.380Z,80.48
2018-09-30T23:28:46.735Z,79.70
2018-09-30T23:31:15.044Z,80.01
2018-09-30T23:33:43.382Z,79.87
2018-09-30T23:36:11.676Z,79.90
2018-09-30T23:38:40.155Z,80.78
2018-09-30T23:41:08.475Z,80.35
2018-09-30T23:43:36.815Z,80.25
2018-09-30T23:46:05.150Z,80.10
2018-09-30T23:48:33.459Z,80.42
2018-09-30T23:51:01.945Z,80.82
2018-09-30T23:53:30.253Z,80.14
2018-09-30T23:55:58.592Z,80.08
2018-09-30T23:58:26.914Z,80.86
